sensor_id;sensor_type;location;lat;lon;timestamp;pressure;altitude;pressure_sealevel;temperature;humidity
34925;BME280;21130;51.728;8.748;2023-02-03T00:01:26;101090.00;;;6.30;100.00
34925;BME280;21130;51.728;8.748;2023-02-03T00:03:53;101086.16;;;6.31;100.00
34925;BME280;21130;51.728;8.748;2023-02-03T00:06:19;101089.13;;;6.29;100.00
34925;BME280;21130;51.728;8.748;2023-02-03T00:08:46;101093.38;;;6.32;100.00
34925;BME280;21130;51.728;8.748;2023-02-03T00:11:13;101091.50;;;6.32;100.00
34925;BME280;21130;51.728;8.748;2023-02-03T00:13:41;101089.59;;;6.33;100.00
34925;BME280;21130;51.728;8.748;2023-02-03T00:16:07;101074.97;;;6.32;100.00
34925;BME280;21130;51.728;8.748;2023-02-03T00:18:34;101073.88;;;6.33;100.00
34925;BME280;21130;51.728;8.748;2023-02-03T00:21:00;101073.69;;;6.35;100.00
34925;BME280;21130;51.728;8.748;2023-02-03T00:23:26;101064.97;;;6.31;100.00
34925;BME280;21130;51.728;8.748;2023-02-03T00:25:56;101056.50;;;6.33;100.00
34925;BME280;21130;51.728;8.748;2023-02-03T00:28:24;101053.75;;;6.33;100.00
34925;BME280;21130;51.728;8.748;2023-02-03T00:30:53;101055.44;;;6.34;100.00
34925;BME280;21130;51.728;8.748;2023-02-03T00:33:20;101051.00;;;6.33;100.00
34925;BME280;21130;51.728;8.748;2023-02-03T00:35:46;101048.22;;;6.33;100.00
34925;BME280;21130;51.728;8.748;2023-02-03T00:38:14;101042.91;;;6.31;100.00
34925;BME280;21130;51.728;8.748;2023-02-03T00:40:42;101042.91;;;6.31;100.00
34925;BME280;21130;51.728;8.748;2023-02-03T00:43:08;101042.91;;;6.31;100.00
34925;BME280;21130;51.728;8.748;2023-02-03T00:45:34;101051.41;;;6.30;100.00
34925;BME280;21130;51.728;8.748;2023-02-03T00:48:03;101055.66;;;6.32;100.00
34925;BME280;21130;51.728;8.748;2023-02-03T00:50:30;101051.00;;;6.33;100.00
34925;BME280;21130;51.728;8.748;2023-02-03T00:52:56;101053.53;;;6.34;100.00
34925;BME280;21130;51.728;8.748;2023-02-03T00:55:23;101052.69;;;6.34;100.00
34925;BME280;21130;51.728;8.748;2023-02-03T00:57:49;101051.88;;;6.40;100.00
34925;BME280;21130;51.728;8.748;2023-02-03T01:00:17;101059.50;;;6.38;100.00
34925;BME280;21130;51.728;8.748;2023-02-03T01:02:43;101057.41;;;6.40;100.00
34925;BME280;21130;51.728;8.748;2023-02-03T01:05:11;101050.38;;;6.37;100.00
34925;BME280;21130;51.728;8.748;2023-02-03T01:07:38;101066.69;;;6.39;100.00
34925;BME280;21130;51.728;8.748;2023-02-03T01:10:05;101078.78;;;6.38;100.00
34925;BME280;21130;51.728;8.748;2023-02-03T01:12:32;101077.94;;;6.37;100.00
34925;BME280;21130;51.728;8.748;2023-02-03T01:14:59;101070.31;;;6.39;100.00
34925;BME280;21130;51.728;8.748;2023-02-03T01:17:26;101073.94;;;6.40;100.00
34925;BME280;21130;51.728;8.748;2023-02-03T01:19:52;101083.06;;;6.40;100.00
34925;BME280;21130;51.728;8.748;2023-02-03T01:22:20;101078.81;;;6.44;100.00
34925;BME280;21130;51.728;8.748;2023-02-03T01:24:47;101093.66;;;6.43;100.00
34925;BME280;21130;51.728;8.748;2023-02-03T01:27:13;101095.41;;;6.51;100.00
34925;BME280;21130;51.728;8.748;2023-02-03T01:29:40;101089.88;;;6.51;100.00
34925;BME280;21130;51.728;8.748;2023-02-03T01:32:06;101085.88;;;6.54;100.00
34925;BME280;21130;51.728;8.748;2023-02-03T01:34:33;101087.97;;;6.52;100.00
34925;BME280;21130;51.728;8.748;2023-02-03T01:36:59;101085.03;;;6.53;100.00
34925;BME280;21130;51.728;8.748;2023-02-03T01:39:27;101081.63;;;6.51;100.00
34925;BME280;21130;51.728;8.748;2023-02-03T01:41:55;101060.81;;;6.48;100.00
34925;BME280;21130;51.728;8.748;2023-02-03T01:44:38;101075.25;;;6.51;100.00
34925;BME280;21130;51.728;8.748;2023-02-03T01:47:13;101082.47;;;6.52;100.00
34925;BME280;21130;51.728;8.748;2023-02-03T01:49:44;101071.03;;;6.55;100.00
34925;BME280;21130;51.728;8.748;2023-02-03T01:52:12;101083.56;;;6.57;100.00
34925;BME280;21130;51.728;8.748;2023-02-03T01:54:42;101085.69;;;6.55;100.00
34925;BME280;21130;51.728;8.748;2023-02-03T01:57:15;101074.66;;;6.55;100.00
34925;BME280;21130;51.728;8.748;2023-02-03T01:59:42;101066.78;;;6.52;100.00
34925;BME280;21130;51.728;8.748;2023-02-03T02:02:10;101056.59;;;6.53;100.00
34925;BME280;21130;51.728;8.748;2023-02-03T02:04:45;101071.25;;;6.53;100.00
34925;BME280;21130;51.728;8.748;2023-02-03T02:07:14;101064.28;;;6.57;100.00
34925;BME280;21130;51.728;8.748;2023-02-03T02:09:43;101066.16;;;6.57;100.00
34925;BME280;21130;51.728;8.748;2023-02-03T02:12:11;101060.88;;;6.55;100.00
34925;BME280;21130;51.728;8.748;2023-02-03T02:14:38;101069.13;;;6.55;100.00
34925;BME280;21130;51.728;8.748;2023-02-03T02:17:10;101060.00;;;6.55;100.00
34925;BME280;21130;51.728;8.748;2023-02-03T02:20:01;101049.84;;;6.55;100.00
34925;BME280;21130;51.728;8.748;2023-02-03T02:22:44;101028.19;;;6.59;100.00
34925;BME280;21130;51.728;8.748;2023-02-03T02:25:33;101029.25;;;6.58;100.00
34925;BME280;21130;51.728;8.748;2023-02-03T02:28:21;101013.75;;;6.57;100.00
34925;BME280;21130;51.728;8.748;2023-02-03T02:33:54;100997.22;;;6.57;100.00
34925;BME280;21130;51.728;8.748;2023-02-03T02:36:28;100999.34;;;6.55;100.00
34925;BME280;21130;51.728;8.748;2023-02-03T02:38:59;100974.31;;;6.56;100.00
34925;BME280;21130;51.728;8.748;2023-02-03T02:41:33;100992.75;;;6.56;100.00
34925;BME280;21130;51.728;8.748;2023-02-03T02:44:06;100990.84;;;6.56;100.00
34925;BME280;21130;51.728;8.748;2023-02-03T02:46:37;100996.38;;;6.56;100.00
34925;BME280;21130;51.728;8.748;2023-02-03T02:49:08;100983.66;;;6.55;100.00
34925;BME280;21130;51.728;8.748;2023-02-03T02:51:39;100967.09;;;6.55;100.00
34925;BME280;21130;51.728;8.748;2023-02-03T02:54:11;100970.91;;;6.54;100.00
34925;BME280;21130;51.728;8.748;2023-02-03T02:56:40;100974.31;;;6.56;100.00
34925;BME280;21130;51.728;8.748;2023-02-03T02:59:09;100985.34;;;6.56;100.00
34925;BME280;21130;51.728;8.748;2023-02-03T03:01:35;100980.03;;;6.55;100.00
34925;BME280;21130;51.728;8.748;2023-02-03T03:04:04;100977.06;;;6.56;100.00
34925;BME280;21130;51.728;8.748;2023-02-03T03:06:34;100986.41;;;6.55;100.00
34925;BME280;21130;51.728;8.748;2023-02-03T03:09:05;101016.75;;;6.55;100.00
34925;BME280;21130;51.728;8.748;2023-02-03T03:11:38;101029.47;;;6.56;100.00
34925;BME280;21130;51.728;8.748;2023-02-03T03:14:07;101044.53;;;6.60;100.00
34925;BME280;21130;51.728;8.748;2023-02-03T03:16:37;101026.94;;;6.61;100.00
34925;BME280;21130;51.728;8.748;2023-02-03T03:19:09;101020.56;;;6.61;100.00
34925;BME280;21130;51.728;8.748;2023-02-03T03:21:43;101039.03;;;6.60;100.00
34925;BME280;21130;51.728;8.748;2023-02-03T03:24:13;101050.72;;;6.62;100.00
34925;BME280;21130;51.728;8.748;2023-02-03T03:26:44;101053.47;;;6.62;100.00
34925;BME280;21130;51.728;8.748;2023-02-03T03:29:15;101035.00;;;6.63;100.00
34925;BME280;21130;51.728;8.748;2023-02-03T03:31:43;101038.63;;;6.63;100.00
34925;BME280;21130;51.728;8.748;2023-02-03T03:34:11;101026.50;;;6.64;100.00
34925;BME280;21130;51.728;8.748;2023-02-03T03:36:43;101009.97;;;6.64;100.00
34925;BME280;21130;51.728;8.748;2023-02-03T03:39:14;100993.41;;;6.64;100.00
34925;BME280;21130;51.728;8.748;2023-02-03T03:41:48;100999.34;;;6.61;100.00
34925;BME280;21130;51.728;8.748;2023-02-03T03:44:21;100991.91;;;6.62;100.00
34925;BME280;21130;51.728;8.748;2023-02-03T03:46:56;100986.22;;;6.63;100.00
34925;BME280;21130;51.728;8.748;2023-02-03T03:49:25;100979.00;;;6.62;100.00
34925;BME280;21130;51.728;8.748;2023-02-03T03:51:57;100976.03;;;6.64;100.00
34925;BME280;21130;51.728;8.748;2023-02-03T03:54:28;100976.25;;;6.62;100.00
34925;BME280;21130;51.728;8.748;2023-02-03T03:56:57;100979.00;;;6.62;100.00
34925;BME280;21130;51.728;8.748;2023-02-03T03:59:30;100988.31;;;6.61;100.00
34925;BME280;21130;51.728;8.748;2023-02-03T04:01:58;100985.38;;;6.63;100.00
34925;BME280;21130;51.728;8.748;2023-02-03T04:04:29;100987.28;;;6.62;100.00
34925;BME280;21130;51.728;8.748;2023-02-03T04:06:58;100979.84;;;6.63;100.00
34925;BME280;21130;51.728;8.748;2023-02-03T04:09:24;100980.88;;;6.62;100.00
34925;BME280;21130;51.728;8.748;2023-02-03T04:11:51;100985.38;;;6.63;100.00
34925;BME280;21130;51.728;8.748;2023-02-03T04:14:27;100981.13;;;6.60;100.00
34925;BME280;21130;51.728;8.748;2023-02-03T04:16:54;100984.72;;;6.61;100.00
34925;BME280;21130;51.728;8.748;2023-02-03T04:19:21;100975.19;;;6.63;100.00
34925;BME280;21130;51.728;8.748;2023-02-03T04:21:48;100979.84;;;6.63;100.00
34925;BME280;21130;51.728;8.748;2023-02-03T04:24:16;100974.34;;;6.63;100.00
34925;BME280;21130;51.728;8.748;2023-02-03T04:26:42;100963.94;;;6.65;100.00
34925;BME280;21130;51.728;8.748;2023-02-03T04:29:09;100949.28;;;6.64;100.00
34925;BME280;21130;51.728;8.748;2023-02-03T04:31:36;100973.91;;;6.66;100.00
34925;BME280;21130;51.728;8.748;2023-02-03T04:34:03;100973.06;;;6.65;100.00
34925;BME280;21130;51.728;8.748;2023-02-03T04:36:30;100974.75;;;6.66;100.00
34925;BME280;21130;51.728;8.748;2023-02-03T04:39:02;100965.44;;;6.67;100.00
34925;BME280;21130;51.728;8.748;2023-02-03T04:41:30;100972.66;;;6.68;100.00
34925;BME280;21130;51.728;8.748;2023-02-03T04:43:56;100970.72;;;6.69;100.00
34925;BME280;21130;51.728;8.748;2023-02-03T04:46:23;100983.06;;;6.73;100.00
34925;BME280;21130;51.728;8.748;2023-02-03T04:48:49;100977.97;;;6.70;100.00
34925;BME280;21130;51.728;8.748;2023-02-03T04:51:15;100978.59;;;6.72;100.00
34925;BME280;21130;51.728;8.748;2023-02-03T04:53:42;100973.06;;;6.72;100.00
34925;BME280;21130;51.728;8.748;2023-02-03T04:56:08;100980.31;;;6.73;100.00
34925;BME280;21130;51.728;8.748;2023-02-03T04:58:36;100959.06;;;6.74;100.00
34925;BME280;21130;51.728;8.748;2023-02-03T05:01:07;100973.28;;;6.70;100.00
34925;BME280;21130;51.728;8.748;2023-02-03T05:03:34;100975.63;;;6.74;100.00
34925;BME280;21130;51.728;8.748;2023-02-03T05:06:01;100970.13;;;6.74;100.00
34925;BME280;21130;51.728;8.748;2023-02-03T05:08:28;100959.91;;;6.74;100.00
34925;BME280;21130;51.728;8.748;2023-02-03T05:10:55;100965.03;;;6.70;100.00
34925;BME280;21130;51.728;8.748;2023-02-03T05:13:21;100944.00;;;6.76;100.00
34925;BME280;21130;51.728;8.748;2023-02-03T05:15:49;100938.72;;;6.75;100.00
34925;BME280;21130;51.728;8.748;2023-02-03T05:18:16;100931.50;;;6.74;100.00
34925;BME280;21130;51.728;8.748;2023-02-03T05:20:42;100922.38;;;6.73;100.00
34925;BME280;21130;51.728;8.748;2023-02-03T05:23:08;100897.56;;;6.73;100.00
34925;BME280;21130;51.728;8.748;2023-02-03T05:25:35;100918.97;;;6.71;100.00
34925;BME280;21130;51.728;8.748;2023-02-03T05:28:01;100929.16;;;6.70;100.00
34925;BME280;21130;51.728;8.748;2023-02-03T05:30:28;100937.84;;;6.74;100.00
34925;BME280;21130;51.728;8.748;2023-02-03T05:32:56;100934.91;;;6.76;100.00
34925;BME280;21130;51.728;8.748;2023-02-03T05:35:22;100929.38;;;6.76;100.00
34925;BME280;21130;51.728;8.748;2023-02-03T05:37:49;100920.69;;;6.79;100.00
34925;BME280;21130;51.728;8.748;2023-02-03T05:40:16;100921.53;;;6.79;100.00
34925;BME280;21130;51.728;8.748;2023-02-03T05:43:00;100919.84;;;6.78;100.00
34925;BME280;21130;51.728;8.748;2023-02-03T05:45:26;100926.44;;;6.77;100.00
34925;BME280;21130;51.728;8.748;2023-02-03T05:47:53;100917.50;;;6.75;100.00
34925;BME280;21130;51.728;8.748;2023-02-03T05:50:20;100930.44;;;6.75;100.00
34925;BME280;21130;51.728;8.748;2023-02-03T05:52:47;100930.22;;;6.76;100.00
34925;BME280;21130;51.728;8.748;2023-02-03T05:55:15;100921.31;;;6.74;100.00
34925;BME280;21130;51.728;8.748;2023-02-03T05:57:42;100907.13;;;6.77;100.00
34925;BME280;21130;51.728;8.748;2023-02-03T06:00:10;100911.16;;;6.75;100.00
34925;BME280;21130;51.728;8.748;2023-02-03T06:02:36;100911.16;;;6.75;100.00
34925;BME280;21130;51.728;8.748;2023-02-03T06:05:03;100913.03;;;6.74;100.00
34925;BME280;21130;51.728;8.748;2023-02-03T06:07:31;100914.09;;;6.73;100.00
34925;BME280;21130;51.728;8.748;2023-02-03T06:09:57;100911.16;;;6.75;100.00
34925;BME280;21130;51.728;8.748;2023-02-03T06:12:24;100919.84;;;6.78;100.00
34925;BME280;21130;51.728;8.748;2023-02-03T06:14:50;100915.16;;;6.79;100.00
34925;BME280;21130;51.728;8.748;2023-02-03T06:17:16;100921.09;;;6.76;100.00
34925;BME280;21130;51.728;8.748;2023-02-03T06:19:43;100935.09;;;6.74;100.00
34925;BME280;21130;51.728;8.748;2023-02-03T06:22:09;100925.16;;;6.80;100.00
34925;BME280;21130;51.728;8.748;2023-02-03T06:24:37;100915.59;;;6.76;100.00
34925;BME280;21130;51.728;8.748;2023-02-03T06:27:03;100928.31;;;6.77;100.00
34925;BME280;21130;51.728;8.748;2023-02-03T06:29:30;100938.50;;;6.76;100.00
34925;BME280;21130;51.728;8.748;2023-02-03T06:31:56;100926.63;;;6.76;100.00
34925;BME280;21130;51.728;8.748;2023-02-03T06:34:23;100943.59;;;6.73;100.00
34925;BME280;21130;51.728;8.748;2023-02-03T06:36:49;100929.78;;;6.66;100.00
34925;BME280;21130;51.728;8.748;2023-02-03T06:39:16;100944.41;;;6.60;100.00
34925;BME280;21130;51.728;8.748;2023-02-03T06:41:44;100941.63;;;6.53;100.00
34925;BME280;21130;51.728;8.748;2023-02-03T06:44:10;100940.56;;;6.47;100.00
34925;BME280;21130;51.728;8.748;2023-02-03T06:46:36;100939.91;;;6.45;100.00
34925;BME280;21130;51.728;8.748;2023-02-03T06:49:03;100938.19;;;6.38;100.00
34925;BME280;21130;51.728;8.748;2023-02-03T06:51:29;100944.31;;;6.33;100.00
34925;BME280;21130;51.728;8.748;2023-02-03T06:53:56;100926.06;;;6.25;100.00
34925;BME280;21130;51.728;8.748;2023-02-03T06:56:22;100931.34;;;6.20;100.00
34925;BME280;21130;51.728;8.748;2023-02-03T06:58:50;100949.34;;;6.16;100.00
34925;BME280;21130;51.728;8.748;2023-02-03T07:01:16;100941.28;;;6.15;100.00
34925;BME280;21130;51.728;8.748;2023-02-03T07:03:43;100957.16;;;6.13;100.00
34925;BME280;21130;51.728;8.748;2023-02-03T07:06:09;100948.44;;;6.09;100.00
34925;BME280;21130;51.728;8.748;2023-02-03T07:08:36;100945.91;;;6.08;100.00
34925;BME280;21130;51.728;8.748;2023-02-03T07:11:03;100954.38;;;6.06;100.00
34925;BME280;21130;51.728;8.748;2023-02-03T07:13:29;100959.22;;;6.04;100.00
34925;BME280;21130;51.728;8.748;2023-02-03T07:15:57;100962.22;;;6.02;100.00
34925;BME280;21130;51.728;8.748;2023-02-03T07:18:23;100951.38;;;6.01;100.00
34925;BME280;21130;51.728;8.748;2023-02-03T07:20:51;100952.22;;;6.01;100.00
34925;BME280;21130;51.728;8.748;2023-02-03T07:23:17;100951.19;;;6.02;100.00
34925;BME280;21130;51.728;8.748;2023-02-03T07:25:44;100942.69;;;6.04;100.00
34925;BME280;21130;51.728;8.748;2023-02-03T07:28:10;100953.09;;;6.02;100.00
34925;BME280;21130;51.728;8.748;2023-02-03T07:30:37;100940.16;;;6.02;100.00
34925;BME280;21130;51.728;8.748;2023-02-03T07:33:04;100952.22;;;6.01;100.00
34925;BME280;21130;51.728;8.748;2023-02-03T07:35:32;100938.69;;;6.00;100.00
34925;BME280;21130;51.728;8.748;2023-02-03T07:37:59;100924.91;;;6.00;100.00
34925;BME280;21130;51.728;8.748;2023-02-03T07:40:25;100925.75;;;6.00;100.00
34925;BME280;21130;51.728;8.748;2023-02-03T07:42:54;100917.28;;;6.02;100.00
34925;BME280;21130;51.728;8.748;2023-02-03T07:45:20;100918.31;;;6.01;100.00
34925;BME280;21130;51.728;8.748;2023-02-03T07:47:48;100923.81;;;6.01;100.00
34925;BME280;21130;51.728;8.748;2023-02-03T07:50:17;100909.84;;;6.02;100.00
34925;BME280;21130;51.728;8.748;2023-02-03T07:52:43;100933.81;;;6.02;100.00
34925;BME280;21130;51.728;8.748;2023-02-03T07:55:09;100927.25;;;6.03;100.00
34925;BME280;21130;51.728;8.748;2023-02-03T07:57:36;100915.16;;;6.04;100.00
34925;BME280;21130;51.728;8.748;2023-02-03T08:00:08;100925.13;;;6.05;100.00
34925;BME280;21130;51.728;8.748;2023-02-03T08:02:35;100930.84;;;6.03;100.00
34925;BME280;21130;51.728;8.748;2023-02-03T08:05:01;100917.28;;;6.02;100.00
34925;BME280;21130;51.728;8.748;2023-02-03T08:07:29;100910.91;;;6.01;100.00
34925;BME280;21130;51.728;8.748;2023-02-03T08:09:55;100931.25;;;6.00;100.00
34925;BME280;21130;51.728;8.748;2023-02-03T08:12:22;100924.47;;;6.03;100.00
34925;BME280;21130;51.728;8.748;2023-02-03T08:14:48;100916.03;;;6.04;100.00
34925;BME280;21130;51.728;8.748;2023-02-03T08:17:14;100929.78;;;6.04;100.00
34925;BME280;21130;51.728;8.748;2023-02-03T08:19:41;100925.13;;;6.05;100.00
34925;BME280;21130;51.728;8.748;2023-02-03T08:22:07;100933.81;;;6.09;100.00
34925;BME280;21130;51.728;8.748;2023-02-03T08:24:41;100939.34;;;6.09;100.00
34925;BME280;21130;51.728;8.748;2023-02-03T08:27:10;100933.81;;;6.09;100.00
34925;BME280;21130;51.728;8.748;2023-02-03T08:29:36;100919.84;;;6.10;100.00
34925;BME280;21130;51.728;8.748;2023-02-03T08:32:03;100939.13;;;6.10;100.00
34925;BME280;21130;51.728;8.748;2023-02-03T08:34:29;100933.63;;;6.10;100.00
34925;BME280;21130;51.728;8.748;2023-02-03T08:36:58;100924.28;;;6.11;100.00
34925;BME280;21130;51.728;8.748;2023-02-03T08:39:25;100914.78;;;6.14;100.00
34925;BME280;21130;51.728;8.748;2023-02-03T08:41:56;100906.06;;;6.10;100.00
34925;BME280;21130;51.728;8.748;2023-02-03T08:44:22;100905.00;;;6.11;100.00
34925;BME280;21130;51.728;8.748;2023-02-03T08:46:48;100907.13;;;6.09;100.00
34925;BME280;21130;51.728;8.748;2023-02-03T08:49:15;100901.59;;;6.09;100.00
34925;BME280;21130;51.728;8.748;2023-02-03T08:51:42;100909.03;;;6.09;100.00
34925;BME280;21130;51.728;8.748;2023-02-03T08:54:09;100918.13;;;6.09;100.00
34925;BME280;21130;51.728;8.748;2023-02-03T08:56:35;100915.38;;;6.09;100.00
34925;BME280;21130;51.728;8.748;2023-02-03T08:59:03;100913.69;;;6.08;100.00
34925;BME280;21130;51.728;8.748;2023-02-03T09:01:29;100928.53;;;6.07;100.00
34925;BME280;21130;51.728;8.748;2023-02-03T09:03:56;100921.97;;;6.08;100.00
34925;BME280;21130;51.728;8.748;2023-02-03T09:06:23;100914.53;;;6.09;100.00
34925;BME280;21130;51.728;8.748;2023-02-03T09:08:49;100924.53;;;6.10;100.00
34925;BME280;21130;51.728;8.748;2023-02-03T09:11:17;100912.44;;;6.11;100.00
34925;BME280;21130;51.728;8.748;2023-02-03T09:13:43;100903.97;;;6.12;100.00
34925;BME280;21130;51.728;8.748;2023-02-03T09:16:12;100913.09;;;6.13;100.00
34925;BME280;21130;51.728;8.748;2023-02-03T09:18:38;100890.81;;;6.14;100.00
34925;BME280;21130;51.728;8.748;2023-02-03T09:21:06;100895.28;;;6.15;100.00
34925;BME280;21130;51.728;8.748;2023-02-03T09:23:35;100899.72;;;6.16;100.00
34925;BME280;21130;51.728;8.748;2023-02-03T09:26:02;100908.00;;;6.16;100.00
34925;BME280;21130;51.728;8.748;2023-02-03T09:28:29;100911.19;;;6.20;100.00
34925;BME280;21130;51.728;8.748;2023-02-03T09:30:58;100914.81;;;6.20;100.00
34925;BME280;21130;51.728;8.748;2023-02-03T09:33:26;100917.13;;;6.23;100.00
34925;BME280;21130;51.728;8.748;2023-02-03T09:35:54;100913.97;;;6.26;100.00
34925;BME280;21130;51.728;8.748;2023-02-03T09:38:21;100911.22;;;6.26;100.00
34925;BME280;21130;51.728;8.748;2023-02-03T09:40:51;100908.25;;;6.28;100.00
34925;BME280;21130;51.728;8.748;2023-02-03T09:43:29;100894.06;;;6.31;100.00
34925;BME280;21130;51.728;8.748;2023-02-03T09:46:00;100912.31;;;6.32;100.00
34925;BME280;21130;51.728;8.748;2023-02-03T09:48:33;100922.06;;;6.35;100.00
34925;BME280;21130;51.728;8.748;2023-02-03T09:51:01;100922.06;;;6.35;100.00
34925;BME280;21130;51.728;8.748;2023-02-03T09:53:33;100926.53;;;6.36;100.00
34925;BME280;21130;51.728;8.748;2023-02-03T09:56:02;100914.41;;;6.37;100.00
34925;BME280;21130;51.728;8.748;2023-02-03T09:58:32;100924.19;;;6.39;100.00
34925;BME280;21130;51.728;8.748;2023-02-03T10:01:00;100919.53;;;6.40;100.00
34925;BME280;21130;51.728;8.748;2023-02-03T10:03:35;100920.81;;;6.44;100.00
34925;BME280;21130;51.728;8.748;2023-02-03T10:06:09;100913.38;;;6.44;100.00
34925;BME280;21130;51.728;8.748;2023-02-03T10:08:50;100911.28;;;6.46;100.00
34925;BME280;21130;51.728;8.748;2023-02-03T10:11:27;100912.13;;;6.47;100.00
34925;BME280;21130;51.728;8.748;2023-02-03T10:14:07;100900.25;;;6.46;100.00
34925;BME280;21130;51.728;8.748;2023-02-03T10:16:50;100885.19;;;6.49;100.00
34925;BME280;21130;51.728;8.748;2023-02-03T10:19:24;100880.31;;;6.51;100.00
34925;BME280;21130;51.728;8.748;2023-02-03T10:21:56;100889.88;;;6.55;100.00
34925;BME280;21130;51.728;8.748;2023-02-03T10:24:26;100875.88;;;6.57;100.00
34925;BME280;21130;51.728;8.748;2023-02-03T10:26:55;100889.88;;;6.55;100.00
34925;BME280;21130;51.728;8.748;2023-02-03T10:29:28;100883.94;;;6.58;100.00
34925;BME280;21130;51.728;8.748;2023-02-03T10:31:57;100890.75;;;6.62;100.00
34925;BME280;21130;51.728;8.748;2023-02-03T10:34:25;100899.63;;;6.64;100.00
34925;BME280;21130;51.728;8.748;2023-02-03T10:36:54;100892.84;;;6.67;100.00
34925;BME280;21130;51.728;8.748;2023-02-03T10:39:30;100911.78;;;6.70;100.00
34925;BME280;21130;51.728;8.748;2023-02-03T10:41:59;100917.69;;;6.74;100.00
34925;BME280;21130;51.728;8.748;2023-02-03T10:44:32;100923.03;;;6.75;100.00
34925;BME280;21130;51.728;8.748;2023-02-03T10:47:04;100926.81;;;6.74;100.00
34925;BME280;21130;51.728;8.748;2023-02-03T10:49:36;100908.38;;;6.75;100.00
34925;BME280;21130;51.728;8.748;2023-02-03T10:52:03;100908.38;;;6.75;100.00
34925;BME280;21130;51.728;8.748;2023-02-03T10:54:31;100923.03;;;6.75;100.00
34925;BME280;21130;51.728;8.748;2023-02-03T10:57:02;100933.22;;;6.75;100.00
34925;BME280;21130;51.728;8.748;2023-02-03T10:59:32;100928.94;;;6.72;100.00
34925;BME280;21130;51.728;8.748;2023-02-03T11:01:59;100935.31;;;6.73;100.00
34925;BME280;21130;51.728;8.748;2023-02-03T11:04:27;100939.97;;;6.72;100.00
34925;BME280;21130;51.728;8.748;2023-02-03T11:06:57;100926.59;;;6.69;100.00
34925;BME280;21130;51.728;8.748;2023-02-03T11:09:30;100916.22;;;6.71;100.00
34925;BME280;21130;51.728;8.748;2023-02-03T11:12:04;100939.13;;;6.71;100.00
34925;BME280;21130;51.728;8.748;2023-02-03T11:14:35;100944.44;;;6.73;100.00
34925;BME280;21130;51.728;8.748;2023-02-03T11:17:06;100936.81;;;6.75;100.00
34925;BME280;21130;51.728;8.748;2023-02-03T11:19:32;100937.03;;;6.80;100.00
34925;BME280;21130;51.728;8.748;2023-02-03T11:22:00;100951.88;;;6.86;100.00
34925;BME280;21130;51.728;8.748;2023-02-03T11:24:29;100938.28;;;6.84;100.00
34925;BME280;21130;51.728;8.748;2023-02-03T11:26:58;100939.16;;;6.85;100.00
34925;BME280;21130;51.728;8.748;2023-02-03T11:29:29;100942.53;;;6.87;100.00
34925;BME280;21130;51.728;8.748;2023-02-03T11:31:57;100933.22;;;6.88;100.00
34925;BME280;21130;51.728;8.748;2023-02-03T11:34:28;100936.63;;;6.90;100.00
34925;BME280;21130;51.728;8.748;2023-02-03T11:36:55;100938.31;;;6.91;100.00
34925;BME280;21130;51.728;8.748;2023-02-03T11:39:28;100938.13;;;6.92;100.00
34925;BME280;21130;51.728;8.748;2023-02-03T11:42:00;100940.88;;;6.92;100.00
34925;BME280;21130;51.728;8.748;2023-02-03T11:44:29;100945.31;;;6.93;100.00
34925;BME280;21130;51.728;8.748;2023-02-03T11:47:00;100946.81;;;6.96;100.00
34925;BME280;21130;51.728;8.748;2023-02-03T11:50:02;100938.72;;;6.95;100.00
34925;BME280;21130;51.728;8.748;2023-02-03T11:52:44;100933.00;;;6.96;100.00
34925;BME280;21130;51.728;8.748;2023-02-03T11:55:20;100932.16;;;6.96;100.00
34925;BME280;21130;51.728;8.748;2023-02-03T11:58:07;100917.53;;;6.95;100.00
34925;BME280;21130;51.728;8.748;2023-02-03T12:00:42;100929.19;;;6.97;100.00
34925;BME280;21130;51.728;8.748;2023-02-03T12:06:45;100931.31;;;6.95;100.00
34925;BME280;21130;51.728;8.748;2023-02-03T12:09:24;100929.59;;;6.94;100.00
34925;BME280;21130;51.728;8.748;2023-02-03T12:12:04;100937.69;;;6.96;100.00
34925;BME280;21130;51.728;8.748;2023-02-03T12:14:44;100944.69;;;6.91;100.00
34925;BME280;21130;51.728;8.748;2023-02-03T12:17:28;100971.63;;;6.89;100.00
34925;BME280;21130;51.728;8.748;2023-02-03T12:20:05;100969.53;;;6.85;100.00
34925;BME280;21130;51.728;8.748;2023-02-03T12:22:43;100988.84;;;6.85;100.00
34925;BME280;21130;51.728;8.748;2023-02-03T12:25:26;100986.88;;;6.79;100.00
34925;BME280;21130;51.728;8.748;2023-02-03T12:28:02;100968.00;;;6.76;100.00
34925;BME280;21130;51.728;8.748;2023-02-03T12:30:33;100968.84;;;6.76;100.00
34925;BME280;21130;51.728;8.748;2023-02-03T12:33:07;100992.44;;;6.85;100.00
34925;BME280;21130;51.728;8.748;2023-02-03T12:35:39;101004.13;;;6.87;100.00
34925;BME280;21130;51.728;8.748;2023-02-03T12:38:13;101006.88;;;6.87;100.00
34925;BME280;21130;51.728;8.748;2023-02-03T12:40:46;100999.44;;;6.88;100.00
34925;BME280;21130;51.728;8.748;2023-02-03T12:43:22;100998.78;;;6.86;100.00
34925;BME280;21130;51.728;8.748;2023-02-03T12:45:53;100990.50;;;6.86;100.00
34925;BME280;21130;51.728;8.748;2023-02-03T12:48:24;101004.09;;;6.81;100.00
34925;BME280;21130;51.728;8.748;2023-02-03T12:50:55;101003.88;;;6.82;100.00
34925;BME280;21130;51.728;8.748;2023-02-03T12:53:27;101003.03;;;6.82;100.00
34925;BME280;21130;51.728;8.748;2023-02-03T12:55:58;100994.75;;;6.82;100.00
34925;BME280;21130;51.728;8.748;2023-02-03T12:58:32;100992.22;;;6.80;100.00
34925;BME280;21130;51.728;8.748;2023-02-03T13:01:04;100987.72;;;6.79;100.00
34925;BME280;21130;51.728;8.748;2023-02-03T13:03:35;100987.13;;;6.77;100.00
34925;BME280;21130;51.728;8.748;2023-02-03T13:06:07;100998.16;;;6.77;100.00
34925;BME280;21130;51.728;8.748;2023-02-03T13:08:38;100998.16;;;6.77;100.00